Terminal Aerodrome Forecast
Issued by NWS

Home | Current Version | Previous Version | Text Only | Print | Product List | Glossary On
Versions: 1 2 3 4 5 6 7 8 9 10 11 12
000
FTUS41 KILN 070524
TAFLCK
TAF
KLCK 070524Z 0706/0806 20003KT P6SM SCT250
     FM071600 21012KT P6SM BKN150
     FM072300 22008KT P6SM SCT050 OVC120=

USA.gov is the U.S. government's official web portal to all federal, state and local government web resources and services.